createdAt,value
2022-11-29T00:01:00.989Z,17.70
2022-11-29T00:03:28.843Z,17.05
2022-11-29T00:05:56.139Z,17.13
2022-11-29T00:08:24.649Z,16.48
2022-11-29T00:10:52.051Z,17.67
2022-11-29T00:13:19.254Z,17.10
2022-11-29T00:15:46.465Z,17.10
2022-11-29T00:18:13.696Z,17.70
2022-11-29T00:20:40.922Z,13.25
2022-11-29T00:23:08.158Z,17.25
2022-11-29T00:25:38.168Z,17.37
2022-11-29T00:28:05.353Z,17.55
2022-11-29T00:30:32.632Z,17.65
2022-11-29T00:33:00.034Z,17.45
2022-11-29T00:35:27.239Z,16.80
2022-11-29T00:37:54.413Z,17.00
2022-11-29T00:40:21.609Z,17.75
2022-11-29T00:42:50.110Z,17.48
2022-11-29T00:45:17.541Z,16.63
2022-11-29T00:47:44.761Z,16.73
2022-11-29T00:50:12.258Z,16.97
2022-11-29T00:52:39.433Z,17.83
2022-11-29T00:55:07.693Z,19.40
2022-11-29T00:57:34.865Z,17.65
2022-11-29T01:00:05.042Z,18.17
2022-11-29T01:02:32.272Z,16.93
2022-11-29T01:04:59.500Z,16.58
2022-11-29T01:07:26.797Z,18.02
2022-11-29T01:09:54.027Z,16.45
2022-11-29T01:12:21.210Z,17.10
2022-11-29T01:14:48.413Z,17.70
2022-11-29T01:17:16.939Z,18.13
2022-11-29T01:19:49.326Z,18.45
2022-11-29T01:22:18.526Z,18.98
2022-11-29T01:24:45.974Z,17.92
2022-11-29T01:27:13.326Z,17.27
2022-11-29T01:29:40.569Z,18.17
2022-11-29T01:32:07.763Z,18.08
2022-11-29T01:34:37.436Z,17.77
2022-11-29T01:37:04.638Z,19.02
2022-11-29T01:39:31.816Z,16.90
2022-11-29T01:42:00.630Z,18.02
2022-11-29T01:45:00.350Z,17.63
2022-11-29T01:47:27.883Z,17.45
2022-11-29T01:49:56.522Z,16.90
2022-11-29T01:52:28.066Z,17.80
2022-11-29T01:54:58.180Z,18.77
2022-11-29T01:57:25.943Z,18.52
2022-11-29T02:00:02.239Z,14.60
2022-11-29T02:02:43.498Z,17.98
2022-11-29T02:05:13.181Z,18.40
2022-11-29T02:07:41.580Z,18.00
2022-11-29T02:10:09.705Z,17.95
2022-11-29T02:12:45.848Z,17.67
2022-11-29T02:15:24.107Z,18.73
2022-11-29T02:18:04.212Z,19.00
2022-11-29T02:21:00.479Z,18.08
2022-11-29T02:23:47.710Z,17.58
2022-11-29T02:26:26.482Z,17.23
2022-11-29T02:29:21.546Z,18.13
2022-11-29T02:32:09.269Z,18.27
2022-11-29T02:34:53.206Z,17.35
2022-11-29T02:37:39.995Z,17.08
2022-11-29T02:40:20.726Z,17.65
2022-11-29T02:43:09.607Z,18.27
2022-11-29T02:45:48.960Z,18.00
2022-11-29T02:48:43.385Z,16.20
2022-11-29T02:51:20.751Z,17.92
2022-11-29T02:53:55.328Z,18.45
2022-11-29T02:56:27.164Z,17.33
2022-11-29T02:59:01.391Z,17.90
2022-11-29T03:01:34.890Z,18.90
2022-11-29T03:04:10.945Z,18.98
2022-11-29T03:06:46.521Z,20.23
2022-11-29T03:09:20.982Z,18.33
2022-11-29T03:11:55.643Z,18.03
2022-11-29T03:14:25.913Z,18.65
2022-11-29T03:17:00.798Z,19.40
2022-11-29T03:19:40.106Z,18.08
2022-11-29T03:22:15.043Z,18.65
2022-11-29T03:24:49.594Z,18.90
2022-11-29T03:27:24.410Z,19.42
2022-11-29T03:29:56.591Z,18.35
2022-11-29T05:55:58.412Z,17.73
2022-11-29T05:58:32.431Z,18.70
2022-11-29T06:01:06.940Z,20.20
2022-11-29T06:03:39.751Z,18.97
2022-11-29T06:06:14.388Z,17.35
2022-11-29T06:08:48.573Z,16.50
2022-11-29T06:11:23.305Z,19.27
2022-11-29T06:14:02.134Z,17.60
2022-11-29T06:16:49.745Z,18.77
2022-11-29T06:19:45.342Z,18.42
2022-11-29T06:22:29.810Z,17.70
2022-11-29T06:25:12.590Z,18.75
2022-11-29T06:27:57.426Z,17.25
2022-11-29T06:30:30.060Z,19.80
2022-11-29T06:33:08.349Z,19.08
2022-11-29T06:35:40.759Z,18.88
2022-11-29T06:38:16.109Z,19.13
2022-11-29T06:40:43.850Z,18.30
2022-11-29T06:43:13.379Z,18.07
2022-11-29T06:45:45.948Z,19.73
2022-11-29T06:48:19.458Z,18.67
2022-11-29T06:50:56.321Z,20.13
2022-11-29T06:53:34.410Z,18.80
2022-11-29T06:56:08.713Z,19.93
2022-11-29T06:58:46.097Z,18.90
2022-11-29T07:01:24.130Z,19.27
2022-11-29T07:04:07.309Z,18.70
2022-11-29T07:06:35.614Z,18.30
2022-11-29T07:09:10.990Z,19.07
2022-11-29T07:11:39.191Z,18.55
2022-11-29T07:14:09.741Z,19.00
2022-11-29T07:16:44.522Z,18.27
2022-11-29T07:19:18.747Z,18.27
2022-11-29T07:21:59.009Z,17.63
2022-11-29T07:24:39.069Z,19.20
2022-11-29T07:27:15.979Z,18.73
2022-11-29T07:29:58.858Z,17.88
2022-11-29T07:32:35.839Z,17.75
2022-11-29T07:35:10.061Z,17.87
2022-11-29T07:37:48.064Z,18.27
2022-11-29T07:40:19.474Z,19.45
2022-11-29T07:42:59.897Z,17.63
2022-11-29T07:45:31.728Z,18.58
2022-11-29T07:47:59.569Z,17.57
2022-11-29T07:50:27.715Z,17.88
2022-11-29T07:52:55.322Z,18.50
2022-11-29T07:55:24.663Z,18.25
2022-11-29T07:57:52.633Z,19.25
2022-11-29T08:00:20.522Z,18.63
2022-11-29T08:02:50.408Z,17.80
2022-11-29T08:05:17.812Z,18.83
2022-11-29T08:07:46.340Z,18.92
2022-11-29T08:10:16.110Z,18.02
2022-11-29T08:12:44.224Z,17.67
2022-11-29T08:15:11.933Z,17.65
2022-11-29T08:17:39.554Z,18.17
2022-11-29T08:20:09.939Z,17.90
2022-11-29T08:22:37.144Z,18.63
2022-11-29T08:25:05.433Z,17.43
2022-11-29T08:27:33.193Z,18.98
2022-11-29T08:30:00.369Z,18.88
2022-11-29T08:32:27.852Z,19.15
2022-11-29T08:34:55.063Z,19.05
2022-11-29T08:37:23.587Z,17.63
2022-11-29T08:39:50.787Z,18.23
2022-11-29T08:42:18.033Z,19.50
2022-11-29T08:44:45.965Z,18.67
2022-11-29T08:47:32.212Z,18.88
2022-11-29T08:50:02.331Z,16.87
2022-11-29T08:52:50.685Z,17.83
2022-11-29T08:55:19.920Z,19.25
2022-11-29T08:57:47.553Z,19.20
2022-11-29T09:00:15.927Z,19.15
2022-11-29T09:02:43.341Z,18.33
2022-11-29T09:05:11.634Z,17.63
2022-11-29T09:07:40.579Z,18.65
2022-11-29T09:10:09.301Z,15.07
2022-11-29T09:12:37.819Z,17.15
2022-11-29T09:15:07.392Z,18.87
2022-11-29T09:17:34.700Z,19.38
2022-11-29T09:20:02.164Z,18.63
2022-11-29T09:22:29.399Z,17.25
2022-11-29T09:24:57.897Z,18.65
2022-11-29T09:27:25.097Z,18.20
2022-11-29T09:29:52.271Z,17.52
2022-11-29T09:32:19.436Z,18.23
2022-11-29T09:34:46.921Z,17.65
2022-11-29T09:37:14.351Z,18.08
2022-11-29T09:39:41.829Z,17.87
2022-11-29T09:42:23.912Z,18.17
2022-11-29T09:45:01.208Z,19.10
2022-11-29T09:47:45.526Z,18.05
2022-11-29T09:50:21.168Z,17.80
2022-11-29T09:52:56.438Z,18.63
2022-11-29T09:55:39.019Z,17.63
2022-11-29T09:58:13.903Z,17.60
2022-11-29T10:00:48.376Z,18.40
2022-11-29T10:03:23.269Z,17.35
2022-11-29T10:05:57.390Z,18.40
2022-11-29T10:08:31.016Z,18.95
2022-11-29T10:11:06.408Z,18.13
2022-11-29T10:13:36.303Z,17.17
2022-11-29T10:16:12.248Z,17.58
2022-11-29T10:18:46.094Z,17.87
2022-11-29T10:21:19.737Z,18.25
2022-11-29T10:23:50.911Z,18.00
2022-11-29T10:26:18.280Z,19.20
2022-11-29T10:28:48.678Z,18.50
2022-11-29T10:31:26.715Z,19.13
2022-11-29T10:33:55.227Z,19.90
2022-11-29T10:36:27.046Z,17.95
2022-11-29T10:38:56.584Z,18.05
2022-11-29T10:41:23.821Z,19.60
2022-11-29T10:43:55.105Z,19.03
2022-11-29T10:46:28.174Z,18.35
2022-11-29T10:48:57.577Z,18.67
2022-11-29T10:51:24.908Z,17.95
2022-11-29T10:53:54.520Z,17.35
2022-11-29T10:56:24.190Z,18.43
2022-11-29T10:58:58.269Z,18.98
2022-11-29T11:01:28.880Z,18.50
2022-11-29T11:03:58.806Z,17.58
2022-11-29T11:06:27.902Z,18.65
2022-11-29T11:08:57.207Z,19.57
2022-11-29T11:11:27.779Z,18.08
2022-11-29T11:14:01.456Z,18.30
2022-11-29T11:16:32.920Z,18.83
2022-11-29T11:19:27.702Z,17.65
2022-11-29T11:21:55.469Z,17.57
2022-11-29T11:24:25.408Z,18.98
2022-11-29T11:26:52.859Z,18.75
2022-11-29T11:29:24.515Z,19.13
2022-11-29T11:31:55.371Z,19.80
2022-11-29T11:34:29.095Z,19.70
2022-11-29T11:37:21.532Z,18.05
2022-11-29T11:39:50.411Z,19.08
2022-11-29T11:42:40.272Z,18.38
2022-11-29T11:45:27.315Z,19.13
2022-11-29T11:47:58.253Z,18.53
2022-11-29T11:50:29.513Z,18.88
2022-11-29T11:52:58.801Z,19.50
2022-11-29T11:55:32.021Z,19.08
2022-11-29T11:58:07.837Z,19.85
2022-11-29T12:01:02.904Z,18.47
2022-11-29T12:03:49.652Z,19.05
2022-11-29T12:06:27.100Z,18.83
2022-11-29T12:08:59.199Z,18.60
2022-11-29T12:11:31.389Z,19.27
2022-11-29T12:14:00.272Z,18.97
2022-11-29T12:16:34.662Z,18.40
2022-11-29T12:19:11.964Z,20.70
2022-11-29T12:21:43.523Z,19.65
2022-11-29T12:24:26.238Z,20.23
2022-11-29T12:26:57.615Z,19.63
2022-11-29T12:29:31.551Z,20.02
2022-11-29T12:32:14.464Z,19.88
2022-11-29T12:34:58.674Z,18.35
2022-11-29T12:37:32.747Z,18.60
2022-11-29T12:40:06.181Z,19.17
2022-11-29T12:42:46.066Z,19.58
2022-11-29T12:45:27.565Z,20.73
2022-11-29T12:48:10.073Z,18.95
2022-11-29T12:50:50.181Z,20.63
2022-11-29T12:53:33.623Z,19.30
2022-11-29T12:56:10.980Z,19.35
2022-11-29T12:58:50.189Z,19.65
2022-11-29T13:01:24.137Z,19.17
2022-11-29T13:03:58.760Z,20.27
2022-11-29T13:06:33.023Z,19.30
2022-11-29T13:09:35.146Z,20.60
2022-11-29T13:12:06.478Z,21.27
2022-11-29T13:14:54.944Z,19.42
2022-11-29T13:17:30.476Z,20.35
2022-11-29T13:20:04.060Z,20.70
2022-11-29T13:22:45.627Z,19.83
2022-11-29T13:25:17.581Z,20.75
2022-11-29T13:27:58.306Z,19.33
2022-11-29T13:30:26.113Z,20.20
2022-11-29T13:32:59.163Z,20.77
2022-11-29T13:35:35.130Z,20.55
2022-11-29T13:38:09.101Z,18.95
2022-11-29T13:40:38.568Z,20.67
2022-11-29T13:43:18.111Z,19.25
2022-11-29T13:45:50.733Z,20.17
2022-11-29T13:48:31.713Z,20.73
2022-11-29T13:51:21.967Z,20.25
2022-11-29T13:53:51.499Z,20.45
2022-11-29T13:56:33.399Z,20.42
2022-11-29T13:59:05.161Z,20.00
2022-11-29T14:01:44.873Z,20.67
2022-11-29T14:04:28.813Z,21.80
2022-11-29T14:07:08.796Z,20.17
2022-11-29T14:09:50.945Z,20.27
2022-11-29T14:12:35.744Z,21.07
2022-11-29T14:15:17.026Z,21.40
2022-11-29T14:17:50.898Z,20.35
2022-11-29T14:20:44.855Z,22.25
2022-11-29T14:23:17.847Z,21.35
2022-11-29T14:26:20.591Z,18.40
2022-11-29T14:28:52.346Z,21.00
2022-11-29T14:31:49.132Z,21.55
2022-11-29T14:34:33.773Z,20.42
2022-11-29T14:37:08.970Z,20.70
2022-11-29T14:39:44.401Z,20.87
2022-11-29T14:42:18.559Z,21.52
2022-11-29T14:44:51.597Z,21.90
2022-11-29T14:47:29.725Z,20.08
2022-11-29T14:49:59.578Z,21.48
2022-11-29T14:52:30.320Z,21.43
2022-11-29T14:55:02.402Z,20.80
2022-11-29T14:57:52.117Z,20.77
2022-11-29T15:00:22.241Z,19.65
2022-11-29T15:02:52.925Z,20.92
2022-11-29T15:05:24.404Z,20.97
2022-11-29T15:07:56.945Z,20.63
2022-11-29T15:10:30.031Z,20.35
2022-11-29T15:12:59.902Z,20.13
2022-11-29T15:15:44.428Z,19.10
2022-11-29T15:18:27.175Z,19.67
2022-11-29T15:21:08.198Z,19.58
2022-11-29T15:23:41.385Z,20.40
2022-11-29T15:26:16.469Z,20.80
2022-11-29T15:28:44.179Z,20.65
2022-11-29T15:31:15.736Z,20.20
2022-11-29T15:33:45.883Z,21.70
2022-11-29T15:36:17.136Z,19.45
2022-11-29T15:38:46.104Z,21.13
2022-11-29T15:41:20.602Z,20.95
2022-11-29T15:43:51.996Z,19.80
2022-11-29T15:46:23.649Z,21.25
2022-11-29T15:48:50.872Z,19.75
2022-11-29T15:51:25.705Z,21.48
2022-11-29T15:54:11.564Z,22.33
2022-11-29T15:56:45.104Z,20.70
2022-11-29T15:59:30.212Z,20.85
2022-11-29T16:02:02.356Z,20.65
2022-11-29T16:04:30.263Z,21.10
2022-11-29T16:06:57.840Z,21.15
2022-11-29T16:09:31.162Z,20.40
2022-11-29T16:11:59.955Z,19.77
2022-11-29T16:14:28.546Z,20.73
2022-11-29T16:17:00.467Z,20.08
2022-11-29T16:19:32.430Z,22.00
2022-11-29T16:22:12.386Z,19.93
2022-11-29T16:24:45.664Z,20.77
2022-11-29T16:27:14.151Z,20.48
2022-11-29T16:29:45.012Z,21.05
2022-11-29T16:32:20.253Z,20.40
2022-11-29T16:34:47.832Z,21.23
2022-11-29T16:37:18.762Z,20.48
2022-11-29T16:39:48.070Z,22.40
2022-11-29T16:42:23.581Z,20.83
2022-11-29T16:45:33.458Z,21.00
2022-11-29T16:48:13.911Z,20.73
2022-11-29T16:50:41.115Z,20.05
2022-11-29T16:53:33.194Z,21.92
2022-11-29T16:56:00.382Z,21.80
2022-11-29T16:58:27.906Z,21.25
2022-11-29T17:00:55.496Z,21.40
2022-11-29T17:03:24.085Z,21.33
2022-11-29T17:05:51.336Z,22.15
2022-11-29T17:08:18.564Z,23.02
2022-11-29T17:10:45.782Z,22.67
2022-11-29T17:13:13.031Z,21.73
2022-11-29T17:15:40.278Z,21.88
2022-11-29T17:18:07.487Z,21.85
2022-11-29T17:20:36.015Z,23.13
2022-11-29T17:23:03.220Z,23.20
2022-11-29T17:25:30.377Z,22.20
2022-11-29T17:27:57.975Z,23.40
2022-11-29T17:30:25.763Z,23.67
2022-11-29T17:32:52.982Z,21.48
2022-11-29T17:35:20.175Z,24.17
2022-11-29T17:37:48.695Z,21.13
2022-11-29T17:40:16.155Z,22.27
2022-11-29T17:42:43.333Z,23.38
2022-11-29T17:45:11.258Z,23.50
2022-11-29T17:47:38.464Z,22.85
2022-11-29T17:50:06.838Z,21.87
2022-11-29T17:52:34.004Z,22.42
2022-11-29T17:55:02.514Z,22.80
2022-11-29T17:57:29.681Z,21.77
2022-11-29T17:59:56.844Z,22.15
2022-11-29T18:02:24.043Z,23.57
2022-11-29T18:04:51.367Z,21.95
2022-11-29T18:07:18.589Z,22.30
2022-11-29T18:09:47.347Z,23.08
2022-11-29T18:12:16.081Z,22.58
2022-11-29T18:14:43.292Z,23.90
2022-11-29T18:17:10.510Z,23.45
2022-11-29T18:19:37.733Z,23.48
2022-11-29T18:22:04.905Z,23.17
2022-11-29T18:24:32.087Z,23.70
2022-11-29T18:26:59.264Z,22.47
2022-11-29T18:29:31.477Z,22.48
2022-11-29T18:32:01.380Z,23.08
2022-11-29T18:34:28.545Z,22.60
2022-11-29T18:36:55.706Z,23.25
2022-11-29T18:39:24.905Z,18.37
2022-11-29T18:41:52.092Z,21.92
2022-11-29T18:44:21.515Z,23.55
2022-11-29T18:46:50.207Z,23.23
2022-11-29T18:49:18.426Z,22.80
2022-11-29T18:51:46.867Z,23.07
2022-11-29T18:54:14.979Z,23.23
2022-11-29T18:56:43.441Z,24.48
2022-11-29T18:59:12.248Z,23.80
2022-11-29T19:01:42.421Z,23.95
2022-11-29T19:04:12.956Z,23.67
2022-11-29T19:06:40.837Z,24.17
2022-11-29T19:09:16.217Z,24.52
2022-11-29T19:11:43.683Z,23.42
2022-11-29T19:14:12.675Z,23.73
2022-11-29T19:16:42.055Z,23.70
2022-11-29T19:19:11.240Z,22.50
2022-11-29T19:21:42.090Z,24.85
2022-11-29T19:24:14.529Z,25.20
2022-11-29T19:26:44.368Z,24.73
2022-11-29T19:29:12.383Z,23.57
2022-11-29T19:31:40.238Z,22.17
2022-11-29T19:34:07.853Z,23.33
2022-11-29T19:36:42.285Z,22.10
2022-11-29T19:39:10.319Z,22.92
2022-11-29T19:41:37.576Z,24.40
2022-11-29T19:44:06.987Z,22.20
2022-11-29T19:46:36.246Z,23.67
2022-11-29T19:49:05.726Z,23.88
2022-11-29T19:51:33.574Z,21.35
2022-11-29T19:54:04.887Z,23.77
2022-11-29T19:56:32.577Z,23.20
2022-11-29T19:58:59.875Z,22.42
2022-11-29T20:01:36.062Z,24.10
2022-11-29T20:04:07.359Z,23.95
2022-11-29T20:06:34.850Z,24.37
2022-11-29T20:09:04.017Z,22.25
2022-11-29T20:11:31.240Z,24.15
2022-11-29T20:13:59.966Z,24.88
2022-11-29T20:16:29.461Z,22.98
2022-11-29T20:18:57.795Z,22.57
2022-11-29T20:21:27.547Z,23.13
2022-11-29T20:23:56.173Z,23.67
2022-11-29T20:26:25.331Z,22.80
2022-11-29T20:28:52.761Z,24.35
2022-11-29T20:31:22.776Z,23.00
2022-11-29T20:33:52.835Z,23.60
2022-11-29T20:36:32.837Z,23.50
2022-11-29T20:39:05.813Z,23.08
2022-11-29T20:41:41.503Z,24.55
2022-11-29T20:44:13.699Z,23.33
2022-11-29T20:46:41.273Z,22.77
2022-11-29T20:49:09.703Z,24.80
2022-11-29T20:51:42.025Z,24.77
2022-11-29T20:54:10.602Z,24.75
2022-11-29T20:56:39.142Z,24.60
2022-11-29T20:59:06.397Z,23.75
2022-11-29T21:01:33.589Z,25.42
2022-11-29T21:04:00.908Z,24.50
2022-11-29T21:06:28.115Z,25.83
2022-11-29T21:08:55.292Z,25.47
2022-11-29T21:11:23.967Z,24.80
2022-11-29T21:13:53.015Z,25.65
2022-11-29T21:16:27.306Z,24.65
2022-11-29T21:18:59.112Z,26.33
2022-11-29T21:21:33.222Z,24.23
2022-11-29T21:24:05.197Z,25.15
2022-11-29T21:26:41.762Z,25.00
2022-11-29T21:29:16.172Z,25.90
2022-11-29T21:31:43.949Z,25.35
2022-11-29T21:34:11.365Z,26.30
2022-11-29T21:36:38.816Z,25.50
2022-11-29T21:39:06.888Z,24.75
2022-11-29T21:41:34.192Z,26.45
2022-11-29T21:44:08.850Z,25.80
2022-11-29T21:46:37.596Z,25.20
2022-11-29T21:49:05.315Z,25.05
2022-11-29T21:51:32.525Z,26.25
2022-11-29T21:54:00.757Z,27.20
2022-11-29T21:56:27.942Z,26.50
2022-11-29T21:58:55.179Z,26.50
2022-11-29T22:01:22.511Z,26.77
2022-11-29T22:03:52.317Z,25.58
2022-11-29T22:06:20.397Z,25.77
2022-11-29T22:08:48.374Z,26.70
2022-11-29T22:11:17.269Z,25.37
2022-11-29T22:14:03.456Z,25.85
2022-11-29T22:16:30.763Z,27.20
2022-11-29T22:18:59.315Z,26.88
2022-11-29T22:21:26.539Z,25.40
2022-11-29T22:23:53.746Z,24.80
2022-11-29T22:26:21.838Z,26.65
2022-11-29T22:28:49.141Z,27.05
2022-11-29T22:31:16.509Z,26.70
2022-11-29T22:33:43.714Z,26.73
2022-11-29T22:36:13.170Z,26.70
2022-11-29T22:38:40.619Z,25.63
2022-11-29T22:41:09.861Z,28.48
2022-11-29T22:43:38.822Z,27.50
2022-11-29T22:46:07.696Z,27.13
2022-11-29T22:48:38.905Z,26.80
2022-11-29T22:51:07.913Z,26.63
2022-11-29T22:53:37.568Z,29.25
2022-11-29T22:56:07.031Z,28.25
2022-11-29T22:58:34.504Z,28.17
2022-11-29T23:01:02.850Z,27.17
2022-11-29T23:03:32.786Z,26.90
2022-11-29T23:06:03.877Z,26.52
2022-11-29T23:08:31.629Z,24.73
2022-11-29T23:11:00.673Z,26.70
2022-11-29T23:13:27.895Z,26.70
2022-11-29T23:15:55.085Z,26.42
2022-11-29T23:18:22.300Z,27.52
2022-11-29T23:20:49.505Z,28.00
2022-11-29T23:23:16.708Z,27.02
2022-11-29T23:25:48.566Z,26.50
2022-11-29T23:28:17.319Z,27.02
2022-11-29T23:30:44.691Z,26.80
2022-11-29T23:33:11.910Z,27.00
2022-11-29T23:35:39.183Z,27.63
2022-11-29T23:38:06.988Z,26.13
2022-11-29T23:40:34.506Z,26.95
2022-11-29T23:43:01.694Z,26.73
2022-11-29T23:45:30.257Z,27.92
2022-11-29T23:47:57.572Z,28.20
2022-11-29T23:50:24.777Z,26.13
2022-11-29T23:52:53.822Z,26.02
2022-11-29T23:55:21.709Z,28.17
2022-11-29T23:57:49.296Z,27.30
